sensor_id;sensor_type;location;lat;lon;timestamp;P1;durP1;ratioP1;P2;durP2;ratioP2
35056;SDS011;21241;51.828;19.574;2023-08-21T00:00:22;11.80;;;10.90;;
35056;SDS011;21241;51.828;19.574;2023-08-21T00:03:09;11.40;;;10.60;;
35056;SDS011;21241;51.828;19.574;2023-08-21T00:05:37;11.40;;;10.70;;
35056;SDS011;21241;51.828;19.574;2023-08-21T00:08:05;11.50;;;10.80;;
35056;SDS011;21241;51.828;19.574;2023-08-21T00:10:33;11.40;;;10.50;;
35056;SDS011;21241;51.828;19.574;2023-08-21T00:13:05;10.90;;;10.10;;
35056;SDS011;21241;51.828;19.574;2023-08-21T00:15:33;11.00;;;10.20;;
35056;SDS011;21241;51.828;19.574;2023-08-21T00:18:01;11.10;;;10.30;;
35056;SDS011;21241;51.828;19.574;2023-08-21T00:20:29;10.60;;;9.90;;
35056;SDS011;21241;51.828;19.574;2023-08-21T00:22:56;10.40;;;9.70;;
35056;SDS011;21241;51.828;19.574;2023-08-21T00:25:24;11.50;;;10.70;;
35056;SDS011;21241;51.828;19.574;2023-08-21T00:27:52;10.80;;;10.10;;
35056;SDS011;21241;51.828;19.574;2023-08-21T00:30:20;11.00;;;10.30;;
35056;SDS011;21241;51.828;19.574;2023-08-21T00:32:48;10.30;;;9.70;;
35056;SDS011;21241;51.828;19.574;2023-08-21T00:35:15;9.60;;;9.00;;
35056;SDS011;21241;51.828;19.574;2023-08-21T00:37:43;10.80;;;10.00;;
35056;SDS011;21241;51.828;19.574;2023-08-21T00:40:11;10.80;;;10.10;;
35056;SDS011;21241;51.828;19.574;2023-08-21T00:42:39;10.70;;;10.00;;
35056;SDS011;21241;51.828;19.574;2023-08-21T00:45:08;10.80;;;10.00;;
35056;SDS011;21241;51.828;19.574;2023-08-21T00:47:36;11.50;;;10.80;;
35056;SDS011;21241;51.828;19.574;2023-08-21T00:50:04;11.10;;;10.40;;
35056;SDS011;21241;51.828;19.574;2023-08-21T00:52:34;11.00;;;10.20;;
35056;SDS011;21241;51.828;19.574;2023-08-21T00:55:02;11.50;;;10.80;;
35056;SDS011;21241;51.828;19.574;2023-08-21T00:57:31;11.00;;;10.30;;
35056;SDS011;21241;51.828;19.574;2023-08-21T01:00:00;11.70;;;10.90;;
35056;SDS011;21241;51.828;19.574;2023-08-21T01:02:29;11.20;;;10.40;;
35056;SDS011;21241;51.828;19.574;2023-08-21T01:04:57;12.00;;;11.20;;
35056;SDS011;21241;51.828;19.574;2023-08-21T01:07:24;11.20;;;10.50;;
35056;SDS011;21241;51.828;19.574;2023-08-21T01:09:58;12.00;;;11.30;;
35056;SDS011;21241;51.828;19.574;2023-08-21T01:15:04;12.50;;;11.60;;
35056;SDS011;21241;51.828;19.574;2023-08-21T01:17:34;11.90;;;11.00;;
35056;SDS011;21241;51.828;19.574;2023-08-21T01:20:05;12.30;;;11.40;;
35056;SDS011;21241;51.828;19.574;2023-08-21T01:22:37;11.30;;;10.50;;
35056;SDS011;21241;51.828;19.574;2023-08-21T01:25:08;10.80;;;10.10;;
35056;SDS011;21241;51.828;19.574;2023-08-21T01:27:37;11.40;;;10.70;;
35056;SDS011;21241;51.828;19.574;2023-08-21T01:30:07;10.80;;;10.10;;
35056;SDS011;21241;51.828;19.574;2023-08-21T01:35:41;11.70;;;10.90;;
35056;SDS011;21241;51.828;19.574;2023-08-21T01:38:10;11.40;;;10.70;;
35056;SDS011;21241;51.828;19.574;2023-08-21T01:40:37;12.40;;;11.60;;
35056;SDS011;21241;51.828;19.574;2023-08-21T01:43:05;12.90;;;12.00;;
35056;SDS011;21241;51.828;19.574;2023-08-21T01:45:33;13.20;;;12.40;;
35056;SDS011;21241;51.828;19.574;2023-08-21T01:48:01;13.00;;;12.10;;
35056;SDS011;21241;51.828;19.574;2023-08-21T01:50:30;12.40;;;11.60;;
35056;SDS011;21241;51.828;19.574;2023-08-21T01:52:58;12.20;;;11.30;;
35056;SDS011;21241;51.828;19.574;2023-08-21T01:55:27;12.80;;;11.90;;
35056;SDS011;21241;51.828;19.574;2023-08-21T01:57:55;13.40;;;12.40;;
35056;SDS011;21241;51.828;19.574;2023-08-21T02:00:23;13.20;;;12.30;;
35056;SDS011;21241;51.828;19.574;2023-08-21T02:02:50;12.90;;;12.00;;
35056;SDS011;21241;51.828;19.574;2023-08-21T02:05:18;13.10;;;12.20;;
35056;SDS011;21241;51.828;19.574;2023-08-21T02:07:46;12.90;;;12.20;;
35056;SDS011;21241;51.828;19.574;2023-08-21T02:10:14;13.60;;;12.80;;
35056;SDS011;21241;51.828;19.574;2023-08-21T02:12:42;13.40;;;12.50;;
35056;SDS011;21241;51.828;19.574;2023-08-21T02:15:10;14.10;;;13.10;;
35056;SDS011;21241;51.828;19.574;2023-08-21T02:17:39;14.10;;;13.20;;
35056;SDS011;21241;51.828;19.574;2023-08-21T02:20:07;14.90;;;13.80;;
35056;SDS011;21241;51.828;19.574;2023-08-21T02:22:35;14.20;;;13.30;;
35056;SDS011;21241;51.828;19.574;2023-08-21T02:25:04;14.40;;;13.30;;
35056;SDS011;21241;51.828;19.574;2023-08-21T02:27:32;15.00;;;13.90;;
35056;SDS011;21241;51.828;19.574;2023-08-21T02:30:00;15.40;;;14.30;;
35056;SDS011;21241;51.828;19.574;2023-08-21T02:32:30;16.00;;;14.80;;
35056;SDS011;21241;51.828;19.574;2023-08-21T02:35:00;16.40;;;15.30;;
35056;SDS011;21241;51.828;19.574;2023-08-21T02:37:28;15.60;;;14.50;;
35056;SDS011;21241;51.828;19.574;2023-08-21T02:39:56;17.60;;;16.40;;
35056;SDS011;21241;51.828;19.574;2023-08-21T02:42:24;15.90;;;14.80;;
35056;SDS011;21241;51.828;19.574;2023-08-21T02:44:52;17.00;;;15.70;;
35056;SDS011;21241;51.828;19.574;2023-08-21T02:47:19;16.20;;;15.00;;
35056;SDS011;21241;51.828;19.574;2023-08-21T02:49:47;17.80;;;16.30;;
35056;SDS011;21241;51.828;19.574;2023-08-21T02:52:16;17.40;;;16.20;;
35056;SDS011;21241;51.828;19.574;2023-08-21T02:54:45;17.50;;;16.20;;
35056;SDS011;21241;51.828;19.574;2023-08-21T02:57:12;17.50;;;16.30;;
35056;SDS011;21241;51.828;19.574;2023-08-21T02:59:40;17.60;;;16.20;;
35056;SDS011;21241;51.828;19.574;2023-08-21T03:02:08;16.80;;;15.70;;
35056;SDS011;21241;51.828;19.574;2023-08-21T03:04:36;17.70;;;16.50;;
35056;SDS011;21241;51.828;19.574;2023-08-21T03:07:04;20.00;;;18.40;;
35056;SDS011;21241;51.828;19.574;2023-08-21T03:09:31;17.90;;;16.60;;
35056;SDS011;21241;51.828;19.574;2023-08-21T03:11:59;18.00;;;16.70;;
35056;SDS011;21241;51.828;19.574;2023-08-21T03:14:27;18.60;;;17.40;;
35056;SDS011;21241;51.828;19.574;2023-08-21T03:16:54;19.20;;;17.80;;
35056;SDS011;21241;51.828;19.574;2023-08-21T03:19:22;20.00;;;18.60;;
35056;SDS011;21241;51.828;19.574;2023-08-21T03:21:50;19.30;;;17.80;;
35056;SDS011;21241;51.828;19.574;2023-08-21T03:24:20;19.50;;;18.10;;
35056;SDS011;21241;51.828;19.574;2023-08-21T03:26:48;19.00;;;17.60;;
35056;SDS011;21241;51.828;19.574;2023-08-21T03:29:16;21.50;;;19.80;;
35056;SDS011;21241;51.828;19.574;2023-08-21T03:31:46;23.80;;;22.00;;
35056;SDS011;21241;51.828;19.574;2023-08-21T03:34:16;24.40;;;22.60;;
35056;SDS011;21241;51.828;19.574;2023-08-21T03:36:44;27.70;;;25.80;;
35056;SDS011;21241;51.828;19.574;2023-08-21T03:39:12;28.00;;;25.90;;
35056;SDS011;21241;51.828;19.574;2023-08-21T03:41:43;28.30;;;26.10;;
35056;SDS011;21241;51.828;19.574;2023-08-21T03:44:11;28.50;;;26.30;;
35056;SDS011;21241;51.828;19.574;2023-08-21T03:46:39;28.00;;;25.80;;
35056;SDS011;21241;51.828;19.574;2023-08-21T03:49:07;27.90;;;25.80;;
35056;SDS011;21241;51.828;19.574;2023-08-21T03:51:35;27.10;;;25.20;;
35056;SDS011;21241;51.828;19.574;2023-08-21T03:54:03;28.30;;;26.10;;
35056;SDS011;21241;51.828;19.574;2023-08-21T03:56:31;25.40;;;23.60;;
35056;SDS011;21241;51.828;19.574;2023-08-21T03:58:59;26.00;;;24.10;;
35056;SDS011;21241;51.828;19.574;2023-08-21T04:01:27;27.30;;;25.20;;
35056;SDS011;21241;51.828;19.574;2023-08-21T04:03:55;26.00;;;24.00;;
35056;SDS011;21241;51.828;19.574;2023-08-21T04:06:22;25.40;;;23.60;;
35056;SDS011;21241;51.828;19.574;2023-08-21T04:08:50;24.50;;;22.80;;
35056;SDS011;21241;51.828;19.574;2023-08-21T04:11:19;25.10;;;23.20;;
35056;SDS011;21241;51.828;19.574;2023-08-21T04:13:46;27.90;;;25.70;;
35056;SDS011;21241;51.828;19.574;2023-08-21T04:16:14;27.20;;;25.20;;
35056;SDS011;21241;51.828;19.574;2023-08-21T04:18:44;28.30;;;26.20;;
35056;SDS011;21241;51.828;19.574;2023-08-21T04:21:11;27.00;;;25.00;;
35056;SDS011;21241;51.828;19.574;2023-08-21T04:23:39;26.20;;;24.30;;
35056;SDS011;21241;51.828;19.574;2023-08-21T04:26:07;28.50;;;26.20;;
35056;SDS011;21241;51.828;19.574;2023-08-21T04:28:35;28.10;;;25.90;;
35056;SDS011;21241;51.828;19.574;2023-08-21T04:31:04;28.10;;;26.00;;
35056;SDS011;21241;51.828;19.574;2023-08-21T04:33:33;28.60;;;26.40;;
35056;SDS011;21241;51.828;19.574;2023-08-21T04:36:03;30.20;;;28.00;;
35056;SDS011;21241;51.828;19.574;2023-08-21T04:40:21;30.50;;;28.30;;
35056;SDS011;21241;51.828;19.574;2023-08-21T04:42:52;29.50;;;27.20;;
35056;SDS011;21241;51.828;19.574;2023-08-21T04:45:22;31.60;;;29.40;;
35056;SDS011;21241;51.828;19.574;2023-08-21T04:47:50;32.00;;;29.70;;
35056;SDS011;21241;51.828;19.574;2023-08-21T04:50:18;31.40;;;29.10;;
35056;SDS011;21241;51.828;19.574;2023-08-21T04:52:45;33.50;;;31.00;;
35056;SDS011;21241;51.828;19.574;2023-08-21T04:55:14;32.90;;;30.60;;
35056;SDS011;21241;51.828;19.574;2023-08-21T04:57:42;32.50;;;30.20;;
35056;SDS011;21241;51.828;19.574;2023-08-21T05:00:11;32.40;;;30.10;;
35056;SDS011;21241;51.828;19.574;2023-08-21T05:02:41;32.60;;;30.30;;
35056;SDS011;21241;51.828;19.574;2023-08-21T05:05:09;31.70;;;29.40;;
35056;SDS011;21241;51.828;19.574;2023-08-21T05:07:37;32.70;;;30.30;;
35056;SDS011;21241;51.828;19.574;2023-08-21T05:10:05;32.70;;;30.40;;
35056;SDS011;21241;51.828;19.574;2023-08-21T05:12:34;31.20;;;29.20;;
35056;SDS011;21241;51.828;19.574;2023-08-21T05:15:03;33.30;;;30.90;;
35056;SDS011;21241;51.828;19.574;2023-08-21T05:17:31;34.00;;;31.70;;
35056;SDS011;21241;51.828;19.574;2023-08-21T05:19:59;35.90;;;33.40;;
35056;SDS011;21241;51.828;19.574;2023-08-21T05:22:27;37.90;;;35.10;;
35056;SDS011;21241;51.828;19.574;2023-08-21T05:24:55;38.80;;;36.00;;
35056;SDS011;21241;51.828;19.574;2023-08-21T05:27:23;38.30;;;35.70;;
35056;SDS011;21241;51.828;19.574;2023-08-21T05:29:51;33.30;;;30.90;;
35056;SDS011;21241;51.828;19.574;2023-08-21T05:32:19;29.00;;;27.00;;
35056;SDS011;21241;51.828;19.574;2023-08-21T05:34:47;25.10;;;23.30;;
35056;SDS011;21241;51.828;19.574;2023-08-21T05:37:15;25.60;;;23.80;;
35056;SDS011;21241;51.828;19.574;2023-08-21T05:39:43;26.00;;;24.10;;
35056;SDS011;21241;51.828;19.574;2023-08-21T05:42:11;25.10;;;23.40;;
35056;SDS011;21241;51.828;19.574;2023-08-21T05:44:39;26.00;;;24.20;;
35056;SDS011;21241;51.828;19.574;2023-08-21T05:47:08;27.70;;;25.50;;
35056;SDS011;21241;51.828;19.574;2023-08-21T05:49:35;27.20;;;25.30;;
35056;SDS011;21241;51.828;19.574;2023-08-21T05:52:05;26.40;;;24.40;;
35056;SDS011;21241;51.828;19.574;2023-08-21T05:54:33;29.30;;;26.90;;
35056;SDS011;21241;51.828;19.574;2023-08-21T05:57:00;27.10;;;25.20;;
35056;SDS011;21241;51.828;19.574;2023-08-21T05:59:30;27.90;;;25.90;;
35056;SDS011;21241;51.828;19.574;2023-08-21T06:01:59;28.40;;;26.30;;
35056;SDS011;21241;51.828;19.574;2023-08-21T06:04:27;29.40;;;27.10;;
35056;SDS011;21241;51.828;19.574;2023-08-21T06:06:59;27.60;;;25.60;;
35056;SDS011;21241;51.828;19.574;2023-08-21T06:09:27;28.60;;;26.40;;
35056;SDS011;21241;51.828;19.574;2023-08-21T06:11:57;30.20;;;27.80;;
35056;SDS011;21241;51.828;19.574;2023-08-21T06:14:25;31.60;;;29.00;;
35056;SDS011;21241;51.828;19.574;2023-08-21T06:16:59;31.40;;;28.90;;
35056;SDS011;21241;51.828;19.574;2023-08-21T06:19:27;33.20;;;30.40;;
35056;SDS011;21241;51.828;19.574;2023-08-21T06:21:55;32.30;;;29.70;;
35056;SDS011;21241;51.828;19.574;2023-08-21T06:24:23;31.80;;;29.10;;
35056;SDS011;21241;51.828;19.574;2023-08-21T06:26:55;32.60;;;29.90;;
35056;SDS011;21241;51.828;19.574;2023-08-21T06:29:23;33.20;;;30.50;;
35056;SDS011;21241;51.828;19.574;2023-08-21T06:31:51;29.70;;;27.40;;
35056;SDS011;21241;51.828;19.574;2023-08-21T06:34:20;29.70;;;27.30;;
35056;SDS011;21241;51.828;19.574;2023-08-21T06:36:48;29.30;;;26.80;;
35056;SDS011;21241;51.828;19.574;2023-08-21T06:39:16;29.50;;;27.20;;
35056;SDS011;21241;51.828;19.574;2023-08-21T06:41:44;30.30;;;27.90;;
35056;SDS011;21241;51.828;19.574;2023-08-21T06:44:18;28.90;;;26.50;;
35056;SDS011;21241;51.828;19.574;2023-08-21T06:46:45;30.20;;;27.70;;
35056;SDS011;21241;51.828;19.574;2023-08-21T06:49:14;30.10;;;27.70;;
35056;SDS011;21241;51.828;19.574;2023-08-21T06:51:42;31.00;;;28.40;;
35056;SDS011;21241;51.828;19.574;2023-08-21T06:54:09;30.10;;;27.60;;
35056;SDS011;21241;51.828;19.574;2023-08-21T06:56:37;29.20;;;26.90;;
35056;SDS011;21241;51.828;19.574;2023-08-21T06:59:05;29.40;;;27.00;;
35056;SDS011;21241;51.828;19.574;2023-08-21T07:01:33;30.00;;;26.40;;
35056;SDS011;21241;51.828;19.574;2023-08-21T07:04:00;27.30;;;25.20;;
35056;SDS011;21241;51.828;19.574;2023-08-21T07:06:28;27.10;;;24.90;;
35056;SDS011;21241;51.828;19.574;2023-08-21T07:08:57;27.00;;;24.90;;
35056;SDS011;21241;51.828;19.574;2023-08-21T07:11:25;29.10;;;26.60;;
35056;SDS011;21241;51.828;19.574;2023-08-21T07:13:53;29.10;;;26.80;;
35056;SDS011;21241;51.828;19.574;2023-08-21T07:16:21;24.90;;;23.10;;
35056;SDS011;21241;51.828;19.574;2023-08-21T07:18:48;20.00;;;18.80;;
35056;SDS011;21241;51.828;19.574;2023-08-21T07:21:16;16.80;;;15.70;;
35056;SDS011;21241;51.828;19.574;2023-08-21T07:23:59;13.40;;;12.50;;
35056;SDS011;21241;51.828;19.574;2023-08-21T07:26:27;11.60;;;10.90;;
35056;SDS011;21241;51.828;19.574;2023-08-21T07:28:56;7.70;;;7.20;;
35056;SDS011;21241;51.828;19.574;2023-08-21T07:31:23;7.70;;;7.10;;
35056;SDS011;21241;51.828;19.574;2023-08-21T07:33:51;7.60;;;7.10;;
35056;SDS011;21241;51.828;19.574;2023-08-21T07:36:19;7.00;;;6.60;;
35056;SDS011;21241;51.828;19.574;2023-08-21T07:38:47;6.70;;;6.20;;
35056;SDS011;21241;51.828;19.574;2023-08-21T07:41:14;7.00;;;6.60;;
35056;SDS011;21241;51.828;19.574;2023-08-21T07:43:43;7.20;;;6.70;;
35056;SDS011;21241;51.828;19.574;2023-08-21T07:46:11;6.00;;;5.70;;
35056;SDS011;21241;51.828;19.574;2023-08-21T07:48:44;6.20;;;5.80;;
35056;SDS011;21241;51.828;19.574;2023-08-21T07:51:12;5.60;;;5.20;;
35056;SDS011;21241;51.828;19.574;2023-08-21T07:53:40;5.40;;;5.00;;
35056;SDS011;21241;51.828;19.574;2023-08-21T07:56:08;5.50;;;5.10;;
35056;SDS011;21241;51.828;19.574;2023-08-21T07:58:36;5.50;;;5.10;;
35056;SDS011;21241;51.828;19.574;2023-08-21T08:01:04;5.10;;;4.80;;
35056;SDS011;21241;51.828;19.574;2023-08-21T08:03:32;5.60;;;5.20;;
35056;SDS011;21241;51.828;19.574;2023-08-21T08:06:00;6.30;;;5.80;;
35056;SDS011;21241;51.828;19.574;2023-08-21T08:08:28;5.70;;;5.30;;
35056;SDS011;21241;51.828;19.574;2023-08-21T08:11:01;5.00;;;4.70;;
35056;SDS011;21241;51.828;19.574;2023-08-21T08:13:30;5.70;;;5.30;;
35056;SDS011;21241;51.828;19.574;2023-08-21T08:15:59;5.80;;;5.30;;
35056;SDS011;21241;51.828;19.574;2023-08-21T08:18:27;5.40;;;5.00;;
35056;SDS011;21241;51.828;19.574;2023-08-21T08:20:55;5.50;;;5.10;;
35056;SDS011;21241;51.828;19.574;2023-08-21T08:23:23;5.00;;;4.70;;
35056;SDS011;21241;51.828;19.574;2023-08-21T08:25:51;5.60;;;5.20;;
35056;SDS011;21241;51.828;19.574;2023-08-21T08:28:18;5.50;;;5.10;;
35056;SDS011;21241;51.828;19.574;2023-08-21T08:30:46;6.20;;;5.80;;
35056;SDS011;21241;51.828;19.574;2023-08-21T08:33:14;5.30;;;5.00;;
35056;SDS011;21241;51.828;19.574;2023-08-21T08:35:43;6.20;;;5.70;;
35056;SDS011;21241;51.828;19.574;2023-08-21T08:38:10;6.50;;;6.00;;
35056;SDS011;21241;51.828;19.574;2023-08-21T08:40:43;5.80;;;5.40;;
35056;SDS011;21241;51.828;19.574;2023-08-21T08:43:12;6.30;;;5.90;;
35056;SDS011;21241;51.828;19.574;2023-08-21T08:45:41;6.40;;;6.00;;
35056;SDS011;21241;51.828;19.574;2023-08-21T08:48:09;7.70;;;6.70;;
35056;SDS011;21241;51.828;19.574;2023-08-21T08:50:37;5.80;;;5.40;;
35056;SDS011;21241;51.828;19.574;2023-08-21T08:53:06;5.80;;;5.30;;
35056;SDS011;21241;51.828;19.574;2023-08-21T08:55:44;6.00;;;5.60;;
35056;SDS011;21241;51.828;19.574;2023-08-21T08:58:12;5.80;;;5.40;;
35056;SDS011;21241;51.828;19.574;2023-08-21T09:00:40;5.60;;;5.30;;
35056;SDS011;21241;51.828;19.574;2023-08-21T09:03:08;6.10;;;5.60;;
35056;SDS011;21241;51.828;19.574;2023-08-21T09:05:39;5.10;;;4.80;;
35056;SDS011;21241;51.828;19.574;2023-08-21T09:10:36;5.40;;;5.00;;
35056;SDS011;21241;51.828;19.574;2023-08-21T09:13:18;5.20;;;4.80;;
35056;SDS011;21241;51.828;19.574;2023-08-21T09:15:47;5.10;;;4.70;;
35056;SDS011;21241;51.828;19.574;2023-08-21T09:18:17;4.80;;;4.50;;
35056;SDS011;21241;51.828;19.574;2023-08-21T09:20:44;5.30;;;4.90;;
35056;SDS011;21241;51.828;19.574;2023-08-21T09:23:13;4.90;;;4.60;;
35056;SDS011;21241;51.828;19.574;2023-08-21T09:25:43;5.30;;;4.90;;
35056;SDS011;21241;51.828;19.574;2023-08-21T09:28:12;4.70;;;4.30;;
35056;SDS011;21241;51.828;19.574;2023-08-21T09:30:47;4.60;;;4.40;;
35056;SDS011;21241;51.828;19.574;2023-08-21T09:33:17;5.10;;;4.70;;
35056;SDS011;21241;51.828;19.574;2023-08-21T09:35:46;5.30;;;5.00;;
35056;SDS011;21241;51.828;19.574;2023-08-21T09:38:15;5.40;;;5.10;;
35056;SDS011;21241;51.828;19.574;2023-08-21T09:40:43;5.10;;;4.80;;
35056;SDS011;21241;51.828;19.574;2023-08-21T09:43:23;4.80;;;4.50;;
35056;SDS011;21241;51.828;19.574;2023-08-21T09:45:52;5.00;;;4.60;;
35056;SDS011;21241;51.828;19.574;2023-08-21T09:48:23;4.70;;;4.40;;
35056;SDS011;21241;51.828;19.574;2023-08-21T09:50:54;4.70;;;4.40;;
35056;SDS011;21241;51.828;19.574;2023-08-21T09:53:23;4.10;;;3.80;;
35056;SDS011;21241;51.828;19.574;2023-08-21T09:55:52;5.20;;;4.30;;
35056;SDS011;21241;51.828;19.574;2023-08-21T09:58:21;4.60;;;4.30;;
35056;SDS011;21241;51.828;19.574;2023-08-21T10:00:49;4.90;;;4.60;;
35056;SDS011;21241;51.828;19.574;2023-08-21T10:03:18;4.50;;;4.20;;
35056;SDS011;21241;51.828;19.574;2023-08-21T10:05:49;4.50;;;4.20;;
35056;SDS011;21241;51.828;19.574;2023-08-21T10:08:18;4.30;;;4.00;;
35056;SDS011;21241;51.828;19.574;2023-08-21T10:10:53;4.00;;;3.70;;
35056;SDS011;21241;51.828;19.574;2023-08-21T10:13:21;4.10;;;3.80;;
35056;SDS011;21241;51.828;19.574;2023-08-21T10:15:49;3.50;;;3.30;;
35056;SDS011;21241;51.828;19.574;2023-08-21T10:18:23;2.80;;;2.60;;
35056;SDS011;21241;51.828;19.574;2023-08-21T10:20:53;3.20;;;2.80;;
35056;SDS011;21241;51.828;19.574;2023-08-21T10:23:25;3.50;;;3.20;;
35056;SDS011;21241;51.828;19.574;2023-08-21T10:25:58;3.30;;;3.10;;
35056;SDS011;21241;51.828;19.574;2023-08-21T10:33:52;2.90;;;2.70;;
35056;SDS011;21241;51.828;19.574;2023-08-21T10:36:39;2.70;;;2.60;;
35056;SDS011;21241;51.828;19.574;2023-08-21T10:39:17;3.00;;;2.80;;
35056;SDS011;21241;51.828;19.574;2023-08-21T10:42:03;2.90;;;2.70;;
35056;SDS011;21241;51.828;19.574;2023-08-21T10:47:38;4.40;;;3.10;;
35056;SDS011;21241;51.828;19.574;2023-08-21T10:50:06;3.40;;;3.20;;
35056;SDS011;21241;51.828;19.574;2023-08-21T10:52:39;3.60;;;3.30;;
35056;SDS011;21241;51.828;19.574;2023-08-21T10:55:10;3.20;;;3.00;;
35056;SDS011;21241;51.828;19.574;2023-08-21T10:57:39;3.70;;;3.00;;
35056;SDS011;21241;51.828;19.574;2023-08-21T11:00:11;3.60;;;3.30;;
35056;SDS011;21241;51.828;19.574;2023-08-21T11:02:44;3.00;;;2.80;;
35056;SDS011;21241;51.828;19.574;2023-08-21T11:05:13;3.60;;;3.40;;
35056;SDS011;21241;51.828;19.574;2023-08-21T11:07:45;3.30;;;3.10;;
35056;SDS011;21241;51.828;19.574;2023-08-21T11:10:15;3.50;;;3.20;;
35056;SDS011;21241;51.828;19.574;2023-08-21T11:12:47;3.60;;;3.40;;
35056;SDS011;21241;51.828;19.574;2023-08-21T11:15:17;3.20;;;2.90;;
35056;SDS011;21241;51.828;19.574;2023-08-21T11:20:31;3.20;;;3.00;;
35056;SDS011;21241;51.828;19.574;2023-08-21T11:23:00;3.20;;;2.90;;
35056;SDS011;21241;51.828;19.574;2023-08-21T11:25:30;3.30;;;3.00;;
35056;SDS011;21241;51.828;19.574;2023-08-21T11:27:59;2.90;;;2.70;;
35056;SDS011;21241;51.828;19.574;2023-08-21T11:30:32;2.90;;;2.70;;
35056;SDS011;21241;51.828;19.574;2023-08-21T11:33:10;3.00;;;2.80;;
35056;SDS011;21241;51.828;19.574;2023-08-21T11:35:39;3.20;;;2.90;;
35056;SDS011;21241;51.828;19.574;2023-08-21T11:38:18;2.70;;;2.50;;
35056;SDS011;21241;51.828;19.574;2023-08-21T11:41:00;2.70;;;2.60;;
35056;SDS011;21241;51.828;19.574;2023-08-21T11:43:38;2.80;;;2.60;;
35056;SDS011;21241;51.828;19.574;2023-08-21T11:46:08;2.90;;;2.70;;
35056;SDS011;21241;51.828;19.574;2023-08-21T11:48:38;2.50;;;2.40;;
35056;SDS011;21241;51.828;19.574;2023-08-21T11:51:07;3.10;;;2.90;;
35056;SDS011;21241;51.828;19.574;2023-08-21T11:56:11;3.20;;;2.50;;
35056;SDS011;21241;51.828;19.574;2023-08-21T11:58:41;2.80;;;2.50;;
35056;SDS011;21241;51.828;19.574;2023-08-21T12:01:10;3.80;;;2.90;;
35056;SDS011;21241;51.828;19.574;2023-08-21T12:03:38;3.20;;;2.90;;
35056;SDS011;21241;51.828;19.574;2023-08-21T12:06:11;3.00;;;2.80;;
35056;SDS011;21241;51.828;19.574;2023-08-21T12:08:40;3.00;;;2.80;;
35056;SDS011;21241;51.828;19.574;2023-08-21T12:11:07;3.20;;;2.90;;
35056;SDS011;21241;51.828;19.574;2023-08-21T12:13:35;3.10;;;2.90;;
35056;SDS011;21241;51.828;19.574;2023-08-21T12:16:03;3.00;;;2.70;;
35056;SDS011;21241;51.828;19.574;2023-08-21T12:18:32;3.60;;;3.30;;
35056;SDS011;21241;51.828;19.574;2023-08-21T12:20:59;3.00;;;2.80;;
35056;SDS011;21241;51.828;19.574;2023-08-21T12:23:28;2.50;;;2.40;;
35056;SDS011;21241;51.828;19.574;2023-08-21T12:25:56;2.90;;;2.80;;
35056;SDS011;21241;51.828;19.574;2023-08-21T12:28:24;3.10;;;2.80;;
35056;SDS011;21241;51.828;19.574;2023-08-21T12:30:52;3.00;;;2.80;;
35056;SDS011;21241;51.828;19.574;2023-08-21T12:33:19;3.00;;;2.70;;
35056;SDS011;21241;51.828;19.574;2023-08-21T12:35:51;3.50;;;3.20;;
35056;SDS011;21241;51.828;19.574;2023-08-21T12:38:19;3.10;;;2.80;;
35056;SDS011;21241;51.828;19.574;2023-08-21T12:40:48;2.90;;;2.60;;
35056;SDS011;21241;51.828;19.574;2023-08-21T12:43:16;3.10;;;2.90;;
35056;SDS011;21241;51.828;19.574;2023-08-21T12:45:43;3.00;;;2.80;;
35056;SDS011;21241;51.828;19.574;2023-08-21T12:48:11;2.90;;;2.70;;
35056;SDS011;21241;51.828;19.574;2023-08-21T12:50:39;3.10;;;2.90;;
35056;SDS011;21241;51.828;19.574;2023-08-21T12:53:07;3.00;;;2.70;;
35056;SDS011;21241;51.828;19.574;2023-08-21T12:55:35;3.20;;;3.00;;
35056;SDS011;21241;51.828;19.574;2023-08-21T12:58:03;3.30;;;3.00;;
35056;SDS011;21241;51.828;19.574;2023-08-21T13:00:31;3.00;;;2.80;;
35056;SDS011;21241;51.828;19.574;2023-08-21T13:03:02;3.10;;;2.90;;
35056;SDS011;21241;51.828;19.574;2023-08-21T13:05:31;3.10;;;2.90;;
35056;SDS011;21241;51.828;19.574;2023-08-21T13:07:59;3.50;;;3.20;;
35056;SDS011;21241;51.828;19.574;2023-08-21T13:10:27;3.00;;;2.80;;
35056;SDS011;21241;51.828;19.574;2023-08-21T13:12:55;3.70;;;3.40;;
35056;SDS011;21241;51.828;19.574;2023-08-21T13:15:22;3.60;;;3.30;;
35056;SDS011;21241;51.828;19.574;2023-08-21T13:17:50;3.10;;;2.90;;
35056;SDS011;21241;51.828;19.574;2023-08-21T13:20:18;3.30;;;3.00;;
35056;SDS011;21241;51.828;19.574;2023-08-21T13:22:47;3.60;;;3.00;;
35056;SDS011;21241;51.828;19.574;2023-08-21T13:25:20;3.40;;;3.10;;
35056;SDS011;21241;51.828;19.574;2023-08-21T13:27:52;2.90;;;2.70;;
35056;SDS011;21241;51.828;19.574;2023-08-21T13:30:20;3.00;;;2.80;;
35056;SDS011;21241;51.828;19.574;2023-08-21T13:32:48;3.90;;;3.10;;
35056;SDS011;21241;51.828;19.574;2023-08-21T13:35:16;3.30;;;3.10;;
35056;SDS011;21241;51.828;19.574;2023-08-21T13:37:44;3.10;;;2.90;;
35056;SDS011;21241;51.828;19.574;2023-08-21T13:40:12;3.00;;;2.80;;
35056;SDS011;21241;51.828;19.574;2023-08-21T13:42:42;3.20;;;2.80;;
35056;SDS011;21241;51.828;19.574;2023-08-21T13:45:14;3.40;;;3.20;;
35056;SDS011;21241;51.828;19.574;2023-08-21T13:47:44;3.10;;;2.90;;
35056;SDS011;21241;51.828;19.574;2023-08-21T13:50:16;3.90;;;3.50;;
35056;SDS011;21241;51.828;19.574;2023-08-21T13:52:46;3.70;;;3.40;;
35056;SDS011;21241;51.828;19.574;2023-08-21T13:55:14;3.30;;;3.10;;
35056;SDS011;21241;51.828;19.574;2023-08-21T13:57:43;3.50;;;3.20;;
35056;SDS011;21241;51.828;19.574;2023-08-21T14:00:11;3.00;;;2.80;;
35056;SDS011;21241;51.828;19.574;2023-08-21T14:02:40;3.00;;;2.80;;
35056;SDS011;21241;51.828;19.574;2023-08-21T14:05:10;3.60;;;3.30;;
35056;SDS011;21241;51.828;19.574;2023-08-21T14:07:39;3.20;;;3.00;;
35056;SDS011;21241;51.828;19.574;2023-08-21T14:10:09;4.40;;;3.00;;
35056;SDS011;21241;51.828;19.574;2023-08-21T14:12:37;3.10;;;2.90;;
35056;SDS011;21241;51.828;19.574;2023-08-21T14:15:09;3.20;;;3.00;;
35056;SDS011;21241;51.828;19.574;2023-08-21T14:17:38;3.70;;;3.50;;
35056;SDS011;21241;51.828;19.574;2023-08-21T14:20:07;3.40;;;3.10;;
35056;SDS011;21241;51.828;19.574;2023-08-21T14:22:35;3.30;;;3.00;;
35056;SDS011;21241;51.828;19.574;2023-08-21T14:25:03;3.30;;;3.10;;
35056;SDS011;21241;51.828;19.574;2023-08-21T14:27:33;3.80;;;3.50;;
35056;SDS011;21241;51.828;19.574;2023-08-21T14:30:02;3.30;;;3.00;;
35056;SDS011;21241;51.828;19.574;2023-08-21T14:32:31;3.60;;;3.30;;
35056;SDS011;21241;51.828;19.574;2023-08-21T14:35:03;3.70;;;3.40;;
35056;SDS011;21241;51.828;19.574;2023-08-21T14:37:34;3.50;;;3.20;;
35056;SDS011;21241;51.828;19.574;2023-08-21T14:40:02;3.60;;;3.30;;
35056;SDS011;21241;51.828;19.574;2023-08-21T14:42:36;3.60;;;3.40;;
35056;SDS011;21241;51.828;19.574;2023-08-21T14:45:05;3.80;;;3.50;;
35056;SDS011;21241;51.828;19.574;2023-08-21T14:47:33;3.40;;;3.10;;
35056;SDS011;21241;51.828;19.574;2023-08-21T14:50:04;4.00;;;3.70;;
35056;SDS011;21241;51.828;19.574;2023-08-21T14:52:32;3.30;;;3.00;;
35056;SDS011;21241;51.828;19.574;2023-08-21T14:55:00;3.40;;;3.10;;